sensor_id;sensor_type;location;lat;lon;timestamp;pressure;altitude;pressure_sealevel;temperature;humidity
29549;BME280;16487;53.094;8.800;2023-04-09T00:02:12;101620.66;;;8.42;100.00
29549;BME280;16487;53.094;8.800;2023-04-09T00:04:39;101623.44;;;8.42;100.00
29549;BME280;16487;53.094;8.800;2023-04-09T00:07:06;101605.94;;;8.45;100.00
29549;BME280;16487;53.094;8.800;2023-04-09T00:09:34;101600.03;;;8.43;100.00
29549;BME280;16487;53.094;8.800;2023-04-09T00:12:01;101606.41;;;8.37;100.00
29549;BME280;16487;53.094;8.800;2023-04-09T00:14:29;101598.44;;;8.39;100.00
29549;BME280;16487;53.094;8.800;2023-04-09T00:16:56;101592.91;;;8.39;100.00
29549;BME280;16487;53.094;8.800;2023-04-09T00:19:25;101579.81;;;8.39;100.00
29549;BME280;16487;53.094;8.800;2023-04-09T00:21:52;101578.16;;;8.45;100.00
29549;BME280;16487;53.094;8.800;2023-04-09T00:24:19;101574.97;;;8.47;100.00
29549;BME280;16487;53.094;8.800;2023-04-09T00:26:47;101567.03;;;8.45;100.00
29549;BME280;16487;53.094;8.800;2023-04-09T00:29:14;101565.88;;;8.46;100.00
29549;BME280;16487;53.094;8.800;2023-04-09T00:31:42;101569.47;;;8.43;100.00
29549;BME280;16487;53.094;8.800;2023-04-09T00:34:09;101560.72;;;8.45;100.00
29549;BME280;16487;53.094;8.800;2023-04-09T00:36:38;101559.50;;;8.46;100.00
29549;BME280;16487;53.094;8.800;2023-04-09T00:39:05;101559.13;;;8.44;100.00
29549;BME280;16487;53.094;8.800;2023-04-09T00:41:33;101553.50;;;8.51;100.00
29549;BME280;16487;53.094;8.800;2023-04-09T00:44:00;101559.16;;;8.40;100.00
29549;BME280;16487;53.094;8.800;2023-04-09T00:46:30;101550.41;;;8.42;100.00
29549;BME280;16487;53.094;8.800;2023-04-09T00:48:58;101544.84;;;8.42;100.00
29549;BME280;16487;53.094;8.800;2023-04-09T00:51:25;101548.88;;;8.37;100.00
29549;BME280;16487;53.094;8.800;2023-04-09T00:53:54;101542.09;;;8.38;100.00
29549;BME280;16487;53.094;8.800;2023-04-09T00:56:23;101533.78;;;8.38;100.00
29549;BME280;16487;53.094;8.800;2023-04-09T00:58:52;101523.47;;;8.35;100.00
29549;BME280;16487;53.094;8.800;2023-04-09T01:01:20;101525.09;;;8.36;100.00
29549;BME280;16487;53.094;8.800;2023-04-09T01:03:48;101516.38;;;8.34;100.00
29549;BME280;16487;53.094;8.800;2023-04-09T01:06:21;101521.06;;;8.41;100.00
29549;BME280;16487;53.094;8.800;2023-04-09T01:09:02;101505.63;;;8.36;100.00
29549;BME280;16487;53.094;8.800;2023-04-09T01:11:37;101512.75;;;8.37;100.00
29549;BME280;16487;53.094;8.800;2023-04-09T01:14:12;101508.78;;;8.38;100.00
29549;BME280;16487;53.094;8.800;2023-04-09T01:16:43;101504.44;;;8.37;100.00
29549;BME280;16487;53.094;8.800;2023-04-09T01:19:29;101511.53;;;8.38;100.00
29549;BME280;16487;53.094;8.800;2023-04-09T01:22:01;101512.38;;;8.35;100.00
29549;BME280;16487;53.094;8.800;2023-04-09T01:24:38;101502.88;;;8.36;100.00
29549;BME280;16487;53.094;8.800;2023-04-09T01:27:07;101513.97;;;8.36;100.00
29549;BME280;16487;53.094;8.800;2023-04-09T01:29:56;101508.03;;;8.34;100.00
29549;BME280;16487;53.094;8.800;2023-04-09T01:32:23;101505.25;;;8.34;100.00
29549;BME280;16487;53.094;8.800;2023-04-09T01:34:52;101504.47;;;8.34;100.00
29549;BME280;16487;53.094;8.800;2023-04-09T01:37:21;101504.09;;;8.28;100.00
29549;BME280;16487;53.094;8.800;2023-04-09T01:39:50;101503.34;;;8.28;100.00
29549;BME280;16487;53.094;8.800;2023-04-09T01:42:18;101504.88;;;8.32;100.00
29549;BME280;16487;53.094;8.800;2023-04-09T01:44:46;101505.25;;;8.34;100.00
29549;BME280;16487;53.094;8.800;2023-04-09T01:47:15;101500.47;;;8.35;100.00
29549;BME280;16487;53.094;8.800;2023-04-09T01:49:43;101499.31;;;8.32;100.00
29549;BME280;16487;53.094;8.800;2023-04-09T01:52:11;101499.72;;;8.31;100.00
29549;BME280;16487;53.094;8.800;2023-04-09T01:54:39;101501.72;;;8.30;100.00
29549;BME280;16487;53.094;8.800;2023-04-09T01:57:06;101496.53;;;8.32;100.00
29549;BME280;16487;53.094;8.800;2023-04-09T01:59:33;101508.06;;;8.31;100.00
29549;BME280;16487;53.094;8.800;2023-04-09T02:02:06;101513.25;;;8.25;100.00
29549;BME280;16487;53.094;8.800;2023-04-09T02:04:40;101510.88;;;8.27;100.00
29549;BME280;16487;53.094;8.800;2023-04-09T02:07:09;101518.75;;;8.32;100.00
29549;BME280;16487;53.094;8.800;2023-04-09T02:09:40;101516.81;;;8.29;100.00
29549;BME280;16487;53.094;8.800;2023-04-09T02:12:13;101512.81;;;8.30;100.00
29549;BME280;16487;53.094;8.800;2023-04-09T02:14:45;101524.31;;;8.32;100.00
29549;BME280;16487;53.094;8.800;2023-04-09T02:17:12;101527.53;;;8.27;100.00
29549;BME280;16487;53.094;8.800;2023-04-09T02:19:42;101526.72;;;8.27;100.00
29549;BME280;16487;53.094;8.800;2023-04-09T02:22:11;101528.34;;;8.24;100.00
29549;BME280;16487;53.094;8.800;2023-04-09T02:24:38;101529.91;;;8.22;100.00
29549;BME280;16487;53.094;8.800;2023-04-09T02:27:06;101531.47;;;8.26;100.00
29549;BME280;16487;53.094;8.800;2023-04-09T02:29:34;101533.06;;;8.27;100.00
29549;BME280;16487;53.094;8.800;2023-04-09T02:32:01;101534.66;;;8.25;100.00
29549;BME280;16487;53.094;8.800;2023-04-09T02:34:29;101544.22;;;8.24;100.00
29549;BME280;16487;53.094;8.800;2023-04-09T02:36:57;101541.84;;;8.19;100.00
29549;BME280;16487;53.094;8.800;2023-04-09T02:39:26;101545.78;;;8.25;100.00
29549;BME280;16487;53.094;8.800;2023-04-09T02:41:54;101547.38;;;8.22;100.00
29549;BME280;16487;53.094;8.800;2023-04-09T02:44:21;101551.31;;;8.21;100.00
29549;BME280;16487;53.094;8.800;2023-04-09T02:46:49;101554.50;;;8.20;100.00
29549;BME280;16487;53.094;8.800;2023-04-09T02:49:17;101557.28;;;8.20;100.00
29549;BME280;16487;53.094;8.800;2023-04-09T02:51:44;101556.88;;;8.21;100.00
29549;BME280;16487;53.094;8.800;2023-04-09T02:54:13;101549.75;;;8.20;100.00
29549;BME280;16487;53.094;8.800;2023-04-09T02:56:40;101552.13;;;8.25;100.00
29549;BME280;16487;53.094;8.800;2023-04-09T02:59:08;101557.69;;;8.22;100.00
29549;BME280;16487;53.094;8.800;2023-04-09T03:01:35;101556.88;;;8.21;100.00
29549;BME280;16487;53.094;8.800;2023-04-09T03:04:03;101552.94;;;8.19;100.00
29549;BME280;16487;53.094;8.800;2023-04-09T03:06:30;101558.53;;;8.15;100.00
29549;BME280;16487;53.094;8.800;2023-04-09T03:08:57;101556.91;;;8.18;100.00
29549;BME280;16487;53.094;8.800;2023-04-09T03:11:26;101564.06;;;8.15;100.00
29549;BME280;16487;53.094;8.800;2023-04-09T03:13:53;101564.81;;;8.19;100.00
29549;BME280;16487;53.094;8.800;2023-04-09T03:16:23;101568.81;;;8.18;100.00
29549;BME280;16487;53.094;8.800;2023-04-09T03:18:50;101570.00;;;8.21;100.00
29549;BME280;16487;53.094;8.800;2023-04-09T03:21:18;101570.38;;;8.19;100.00
29549;BME280;16487;53.094;8.800;2023-04-09T03:23:48;101570.03;;;8.17;100.00
29549;BME280;16487;53.094;8.800;2023-04-09T03:26:16;101577.53;;;8.20;100.00
29549;BME280;16487;53.094;8.800;2023-04-09T03:28:48;101577.53;;;8.20;100.00
29549;BME280;16487;53.094;8.800;2023-04-09T03:31:16;101582.28;;;8.20;100.00
29549;BME280;16487;53.094;8.800;2023-04-09T03:33:45;101593.44;;;8.12;100.00
29549;BME280;16487;53.094;8.800;2023-04-09T03:36:13;101597.44;;;8.08;100.00
29549;BME280;16487;53.094;8.800;2023-04-09T03:39:01;101587.09;;;8.12;100.00
29549;BME280;16487;53.094;8.800;2023-04-09T03:41:38;101595.47;;;8.08;100.00
29549;BME280;16487;53.094;8.800;2023-04-09T03:44:11;101594.28;;;8.06;100.00
29549;BME280;16487;53.094;8.800;2023-04-09T03:46:56;101607.75;;;8.04;100.00
29549;BME280;16487;53.094;8.800;2023-04-09T03:49:25;101598.25;;;8.05;100.00
29549;BME280;16487;53.094;8.800;2023-04-09T03:51:55;101594.69;;;8.01;100.00
29549;BME280;16487;53.094;8.800;2023-04-09T03:54:28;101593.50;;;7.98;100.00
29549;BME280;16487;53.094;8.800;2023-04-09T03:56:56;101597.50;;;7.94;100.00
29549;BME280;16487;53.094;8.800;2023-04-09T03:59:26;101591.19;;;7.86;100.00
29549;BME280;16487;53.094;8.800;2023-04-09T04:01:53;101600.38;;;7.73;100.00
29549;BME280;16487;53.094;8.800;2023-04-09T04:04:20;101584.97;;;7.61;100.00
29549;BME280;16487;53.094;8.800;2023-04-09T04:06:54;101591.34;;;7.55;100.00
29549;BME280;16487;53.094;8.800;2023-04-09T04:09:43;101572.72;;;7.52;100.00
29549;BME280;16487;53.094;8.800;2023-04-09T04:12:14;101577.09;;;7.46;100.00
29549;BME280;16487;53.094;8.800;2023-04-09T04:14:55;101562.03;;;7.47;100.00
29549;BME280;16487;53.094;8.800;2023-04-09T04:17:30;101564.44;;;7.41;100.00
29549;BME280;16487;53.094;8.800;2023-04-09T04:19:58;101546.59;;;7.46;100.00
29549;BME280;16487;53.094;8.800;2023-04-09T04:22:26;101553.72;;;7.47;100.00
29549;BME280;16487;53.094;8.800;2023-04-09T04:24:57;101550.19;;;7.43;100.00
29549;BME280;16487;53.094;8.800;2023-04-09T04:27:25;101539.88;;;7.43;100.00
29549;BME280;16487;53.094;8.800;2023-04-09T04:29:55;101543.84;;;7.42;100.00
29549;BME280;16487;53.094;8.800;2023-04-09T04:32:35;101538.28;;;7.46;100.00
29549;BME280;16487;53.094;8.800;2023-04-09T04:35:08;101547.78;;;7.45;100.00
29549;BME280;16487;53.094;8.800;2023-04-09T04:37:36;101551.34;;;7.45;100.00
29549;BME280;16487;53.094;8.800;2023-04-09T04:40:04;101546.56;;;7.53;100.00
29549;BME280;16487;53.094;8.800;2023-04-09T04:42:36;101555.31;;;7.51;100.00
29549;BME280;16487;53.094;8.800;2023-04-09T04:45:11;101561.22;;;7.50;100.00
29549;BME280;16487;53.094;8.800;2023-04-09T04:47:43;101562.81;;;7.51;100.00
29549;BME280;16487;53.094;8.800;2023-04-09T04:50:11;101562.84;;;7.47;100.00
29549;BME280;16487;53.094;8.800;2023-04-09T04:52:51;101568.38;;;7.51;100.00
29549;BME280;16487;53.094;8.800;2023-04-09T04:55:20;101566.38;;;7.55;100.00
29549;BME280;16487;53.094;8.800;2023-04-09T04:57:49;101571.53;;;7.53;100.00
29549;BME280;16487;53.094;8.800;2023-04-09T05:00:19;101569.16;;;7.55;100.00
29549;BME280;16487;53.094;8.800;2023-04-09T05:02:47;101577.09;;;7.53;100.00
29549;BME280;16487;53.094;8.800;2023-04-09T05:05:24;101577.84;;;7.57;100.00
29549;BME280;16487;53.094;8.800;2023-04-09T05:07:55;101593.31;;;7.58;100.00
29549;BME280;16487;53.094;8.800;2023-04-09T05:10:23;101592.09;;;7.59;100.00
29549;BME280;16487;53.094;8.800;2023-04-09T05:12:50;101605.56;;;7.60;100.00
29549;BME280;16487;53.094;8.800;2023-04-09T05:15:27;101615.09;;;7.63;100.00
29549;BME280;16487;53.094;8.800;2023-04-09T05:17:54;101620.22;;;7.64;100.00
29549;BME280;16487;53.094;8.800;2023-04-09T05:20:22;101617.84;;;7.63;100.00
29549;BME280;16487;53.094;8.800;2023-04-09T05:23:02;101622.59;;;7.66;100.00
29549;BME280;16487;53.094;8.800;2023-04-09T05:25:35;101630.94;;;7.62;100.00
29549;BME280;16487;53.094;8.800;2023-04-09T05:28:03;101627.75;;;7.67;100.00
29549;BME280;16487;53.094;8.800;2023-04-09T05:30:33;101625.75;;;7.68;100.00
29549;BME280;16487;53.094;8.800;2023-04-09T05:33:03;101626.16;;;7.73;100.00
29549;BME280;16487;53.094;8.800;2023-04-09T05:35:31;101618.19;;;7.79;100.00
29549;BME280;16487;53.094;8.800;2023-04-09T05:37:59;101628.50;;;7.75;100.00
29549;BME280;16487;53.094;8.800;2023-04-09T05:40:27;101626.97;;;7.67;100.00
29549;BME280;16487;53.094;8.800;2023-04-09T05:42:54;101621.41;;;7.74;100.00
29549;BME280;16487;53.094;8.800;2023-04-09T05:45:38;101620.63;;;7.63;100.00
29549;BME280;16487;53.094;8.800;2023-04-09T05:48:06;101621.41;;;7.70;100.00
29549;BME280;16487;53.094;8.800;2023-04-09T05:50:34;101630.91;;;7.66;100.00
29549;BME280;16487;53.094;8.800;2023-04-09T05:53:20;101622.53;;;7.80;100.00
29549;BME280;16487;53.094;8.800;2023-04-09T05:55:48;101625.72;;;7.78;100.00
29549;BME280;16487;53.094;8.800;2023-04-09T05:58:16;101634.06;;;7.75;100.00
29549;BME280;16487;53.094;8.800;2023-04-09T06:00:45;101632.50;;;7.70;100.00
29549;BME280;16487;53.094;8.800;2023-04-09T06:03:13;101633.31;;;7.64;100.00
29549;BME280;16487;53.094;8.800;2023-04-09T06:05:40;101632.53;;;7.67;100.00
29549;BME280;16487;53.094;8.800;2023-04-09T06:08:07;101631.34;;;7.57;100.00
29549;BME280;16487;53.094;8.800;2023-04-09T06:10:35;101630.94;;;7.55;100.00
29549;BME280;16487;53.094;8.800;2023-04-09T06:13:02;101629.78;;;7.56;100.00
29549;BME280;16487;53.094;8.800;2023-04-09T06:15:29;101621.88;;;7.55;100.00
29549;BME280;16487;53.094;8.800;2023-04-09T06:17:58;101629.38;;;7.58;100.00
29549;BME280;16487;53.094;8.800;2023-04-09T06:20:26;101629.75;;;7.63;100.00
29549;BME280;16487;53.094;8.800;2023-04-09T06:22:53;101637.31;;;7.56;100.00
29549;BME280;16487;53.094;8.800;2023-04-09T06:25:21;101649.19;;;7.63;100.00
29549;BME280;16487;53.094;8.800;2023-04-09T06:27:49;101663.44;;;7.62;100.00
29549;BME280;16487;53.094;8.800;2023-04-09T06:30:16;101665.41;;;7.65;100.00
29549;BME280;16487;53.094;8.800;2023-04-09T06:32:43;101667.38;;;7.68;100.00
29549;BME280;16487;53.094;8.800;2023-04-09T06:35:22;101680.03;;;7.72;100.00
29549;BME280;16487;53.094;8.800;2023-04-09T06:37:49;101695.09;;;7.78;100.00
29549;BME280;16487;53.094;8.800;2023-04-09T06:40:17;101700.66;;;7.78;100.00
29549;BME280;16487;53.094;8.800;2023-04-09T06:42:46;101714.91;;;7.84;100.00
29549;BME280;16487;53.094;8.800;2023-04-09T06:45:22;101730.34;;;7.92;100.00
29549;BME280;16487;53.094;8.800;2023-04-09T06:47:50;101741.81;;;7.97;100.00
29549;BME280;16487;53.094;8.800;2023-04-09T06:50:17;101764.81;;;8.01;100.00
29549;BME280;16487;53.094;8.800;2023-04-09T06:52:46;101781.47;;;8.01;100.00
29549;BME280;16487;53.094;8.800;2023-04-09T06:55:13;101804.44;;;8.16;100.00
29549;BME280;16487;53.094;8.800;2023-04-09T06:57:41;101848.06;;;8.26;100.00
29549;BME280;16487;53.094;8.800;2023-04-09T07:00:09;101879.41;;;8.27;100.00
29549;BME280;16487;53.094;8.800;2023-04-09T07:02:37;101916.72;;;8.33;100.00
29549;BME280;16487;53.094;8.800;2023-04-09T07:05:05;101956.00;;;8.24;100.00
29549;BME280;16487;53.094;8.800;2023-04-09T07:07:32;101981.78;;;8.32;100.00
29549;BME280;16487;53.094;8.800;2023-04-09T07:10:01;102012.34;;;8.39;100.00
29549;BME280;16487;53.094;8.800;2023-04-09T07:12:29;102049.66;;;8.41;100.00
29549;BME280;16487;53.094;8.800;2023-04-09T07:14:57;102089.72;;;8.47;100.00
29549;BME280;16487;53.094;8.800;2023-04-09T07:17:24;102110.00;;;8.58;100.00
29549;BME280;16487;53.094;8.800;2023-04-09T07:19:52;102134.59;;;8.63;100.00
29549;BME280;16487;53.094;8.800;2023-04-09T07:22:19;102153.25;;;8.70;100.00
29549;BME280;16487;53.094;8.800;2023-04-09T07:24:47;102160.03;;;8.72;100.00
29549;BME280;16487;53.094;8.800;2023-04-09T07:27:16;102172.31;;;8.85;100.00
29549;BME280;16487;53.094;8.800;2023-04-09T07:29:43;102197.72;;;8.73;100.00
29549;BME280;16487;53.094;8.800;2023-04-09T07:32:11;102198.16;;;8.89;100.00
29549;BME280;16487;53.094;8.800;2023-04-09T07:34:38;102207.31;;;8.93;100.00
29549;BME280;16487;53.094;8.800;2023-04-09T07:37:05;102223.97;;;9.04;100.00
29549;BME280;16487;53.094;8.800;2023-04-09T07:39:33;102222.78;;;9.08;100.00
29549;BME280;16487;53.094;8.800;2023-04-09T07:42:01;102230.75;;;9.06;100.00
29549;BME280;16487;53.094;8.800;2023-04-09T07:44:32;102250.63;;;9.12;100.00
29549;BME280;16487;53.094;8.800;2023-04-09T07:47:00;102267.31;;;9.22;100.00
29549;BME280;16487;53.094;8.800;2023-04-09T07:49:27;102275.66;;;9.33;100.00
29549;BME280;16487;53.094;8.800;2023-04-09T07:51:55;102287.19;;;9.24;100.00
29549;BME280;16487;53.094;8.800;2023-04-09T07:54:23;102297.53;;;9.42;100.00
29549;BME280;16487;53.094;8.800;2023-04-09T07:56:50;102306.66;;;9.39;100.00
29549;BME280;16487;53.094;8.800;2023-04-09T07:59:18;102308.25;;;9.40;100.00
29549;BME280;16487;53.094;8.800;2023-04-09T08:01:46;102302.28;;;9.59;100.00
29549;BME280;16487;53.094;8.800;2023-04-09T08:04:14;102325.38;;;9.56;100.00
29549;BME280;16487;53.094;8.800;2023-04-09T08:06:42;102307.44;;;9.71;100.00
29549;BME280;16487;53.094;8.800;2023-04-09T08:09:09;102326.13;;;9.74;100.00
29549;BME280;16487;53.094;8.800;2023-04-09T08:11:36;102342.84;;;9.84;100.00
29549;BME280;16487;53.094;8.800;2023-04-09T08:14:03;102371.47;;;9.92;100.00
29549;BME280;16487;53.094;8.800;2023-04-09T08:16:30;102381.41;;;10.03;100.00
29549;BME280;16487;53.094;8.800;2023-04-09T08:18:59;102433.16;;;10.15;100.00
29549;BME280;16487;53.094;8.800;2023-04-09T08:21:26;102440.72;;;10.04;100.00
29549;BME280;16487;53.094;8.800;2023-04-09T08:23:54;102443.91;;;10.20;100.00
29549;BME280;16487;53.094;8.800;2023-04-09T08:26:21;102463.81;;;10.11;100.00
29549;BME280;16487;53.094;8.800;2023-04-09T08:28:48;102468.19;;;10.09;100.00
29549;BME280;16487;53.094;8.800;2023-04-09T08:31:15;102476.97;;;10.18;100.00
29549;BME280;16487;53.094;8.800;2023-04-09T08:33:43;102473.38;;;10.21;100.00
29549;BME280;16487;53.094;8.800;2023-04-09T08:36:12;102480.91;;;10.45;100.00
29549;BME280;16487;53.094;8.800;2023-04-09T08:38:39;102506.75;;;10.77;100.00
29549;BME280;16487;53.094;8.800;2023-04-09T08:41:06;102523.53;;;10.38;100.00
29549;BME280;16487;53.094;8.800;2023-04-09T08:43:34;102519.94;;;10.45;100.00
29549;BME280;16487;53.094;8.800;2023-04-09T08:46:23;102504.44;;;10.33;100.00
29549;BME280;16487;53.094;8.800;2023-04-09T08:48:51;102512.38;;;10.56;100.00
29549;BME280;16487;53.094;8.800;2023-04-09T08:51:22;102537.84;;;10.65;100.00
29549;BME280;16487;53.094;8.800;2023-04-09T08:53:54;102562.16;;;10.68;100.00
29549;BME280;16487;53.094;8.800;2023-04-09T08:56:22;102557.75;;;10.67;100.00
29549;BME280;16487;53.094;8.800;2023-04-09T08:58:50;102556.19;;;10.70;100.00
29549;BME280;16487;53.094;8.800;2023-04-09T09:01:19;102537.06;;;10.40;100.00
29549;BME280;16487;53.094;8.800;2023-04-09T09:03:52;102539.44;;;10.84;100.00
29549;BME280;16487;53.094;8.800;2023-04-09T09:06:22;102560.09;;;11.04;100.00
29549;BME280;16487;53.094;8.800;2023-04-09T09:08:59;102571.22;;;11.18;100.00
29549;BME280;16487;53.094;8.800;2023-04-09T09:11:27;102574.72;;;11.43;100.00
29549;BME280;16487;53.094;8.800;2023-04-09T09:13:56;102572.09;;;10.90;100.00
29549;BME280;16487;53.094;8.800;2023-04-09T09:16:24;102556.53;;;10.89;100.00
29549;BME280;16487;53.094;8.800;2023-04-09T09:18:51;102544.13;;;11.18;100.00
29549;BME280;16487;53.094;8.800;2023-04-09T09:21:22;102554.47;;;11.25;100.00
29549;BME280;16487;53.094;8.800;2023-04-09T09:23:49;102581.03;;;11.72;100.00
29549;BME280;16487;53.094;8.800;2023-04-09T09:26:18;102580.69;;;11.52;100.00
29549;BME280;16487;53.094;8.800;2023-04-09T09:28:46;102587.13;;;11.38;100.00
29549;BME280;16487;53.094;8.800;2023-04-09T09:31:15;102592.28;;;11.40;100.00
29549;BME280;16487;53.094;8.800;2023-04-09T09:33:42;102608.56;;;11.63;100.00
29549;BME280;16487;53.094;8.800;2023-04-09T09:36:10;102605.31;;;11.85;100.00
29549;BME280;16487;53.094;8.800;2023-04-09T09:38:52;102635.34;;;12.43;100.00
29549;BME280;16487;53.094;8.800;2023-04-09T09:41:21;102640.63;;;12.27;100.00
29549;BME280;16487;53.094;8.800;2023-04-09T09:43:49;102626.56;;;12.37;100.00
29549;BME280;16487;53.094;8.800;2023-04-09T09:46:16;102640.75;;;12.64;100.00
29549;BME280;16487;53.094;8.800;2023-04-09T09:48:44;102656.94;;;12.87;100.00
29549;BME280;16487;53.094;8.800;2023-04-09T09:51:12;102684.44;;;13.02;100.00
29549;BME280;16487;53.094;8.800;2023-04-09T09:53:42;102695.59;;;13.09;100.00
29549;BME280;16487;53.094;8.800;2023-04-09T09:56:14;102710.50;;;13.43;100.00
29549;BME280;16487;53.094;8.800;2023-04-09T09:58:46;102745.91;;;13.98;100.00
29549;BME280;16487;53.094;8.800;2023-04-09T10:01:16;102764.75;;;14.91;100.00
29549;BME280;16487;53.094;8.800;2023-04-09T10:03:47;102769.00;;;16.54;100.00
29549;BME280;16487;53.094;8.800;2023-04-09T10:06:16;102780.81;;;15.86;100.00
29549;BME280;16487;53.094;8.800;2023-04-09T10:08:44;102785.59;;;15.43;100.00
29549;BME280;16487;53.094;8.800;2023-04-09T10:11:16;102788.72;;;15.72;100.00
29549;BME280;16487;53.094;8.800;2023-04-09T10:13:48;102783.19;;;14.92;100.00
29549;BME280;16487;53.094;8.800;2023-04-09T10:16:16;102774.66;;;14.99;100.00
29549;BME280;16487;53.094;8.800;2023-04-09T10:18:43;102768.16;;;16.18;100.00
29549;BME280;16487;53.094;8.800;2023-04-09T10:21:16;102780.22;;;15.75;100.00
29549;BME280;16487;53.094;8.800;2023-04-09T10:23:47;102775.50;;;16.31;100.00
29549;BME280;16487;53.094;8.800;2023-04-09T10:26:18;102766.84;;;17.13;100.00
29549;BME280;16487;53.094;8.800;2023-04-09T10:28:46;102767.66;;;16.78;100.00
29549;BME280;16487;53.094;8.800;2023-04-09T10:31:44;102763.81;;;16.88;100.00
29549;BME280;16487;53.094;8.800;2023-04-09T10:34:14;102759.63;;;16.60;100.00
29549;BME280;16487;53.094;8.800;2023-04-09T10:36:42;102763.31;;;17.25;100.00
29549;BME280;16487;53.094;8.800;2023-04-09T10:39:12;102773.63;;;16.64;100.00
29549;BME280;16487;53.094;8.800;2023-04-09T10:41:43;102766.16;;;16.73;100.00
29549;BME280;16487;53.094;8.800;2023-04-09T10:44:19;102768.16;;;16.18;100.00
29549;BME280;16487;53.094;8.800;2023-04-09T10:46:46;102770.44;;;15.83;100.00
29549;BME280;16487;53.094;8.800;2023-04-09T10:49:18;102756.44;;;16.39;100.00
29549;BME280;16487;53.094;8.800;2023-04-09T10:51:53;102751.88;;;17.00;100.00
29549;BME280;16487;53.094;8.800;2023-04-09T10:54:43;102767.84;;;16.71;100.00
29549;BME280;16487;53.094;8.800;2023-04-09T10:57:19;102766.56;;;16.36;100.00
29549;BME280;16487;53.094;8.800;2023-04-09T10:59:48;102766.06;;;16.22;100.00
29549;BME280;16487;53.094;8.800;2023-04-09T11:02:44;102749.34;;;17.54;100.00
29549;BME280;16487;53.094;8.800;2023-04-09T11:05:21;102750.97;;;17.35;100.00
29549;BME280;16487;53.094;8.800;2023-04-09T11:07:54;102747.63;;;17.56;100.00
29549;BME280;16487;53.094;8.800;2023-04-09T11:10:23;102733.59;;;17.69;100.00
29549;BME280;16487;53.094;8.800;2023-04-09T11:12:51;102733.56;;;17.40;100.00
29549;BME280;16487;53.094;8.800;2023-04-09T11:15:19;102730.78;;;17.97;100.00
29549;BME280;16487;53.094;8.800;2023-04-09T11:17:47;102737.44;;;16.98;100.00
29549;BME280;16487;53.094;8.800;2023-04-09T11:20:16;102709.38;;;18.54;100.00
29549;BME280;16487;53.094;8.800;2023-04-09T11:22:45;102716.03;;;17.77;100.00
29549;BME280;16487;53.094;8.800;2023-04-09T11:25:18;102724.03;;;17.18;100.00
29549;BME280;16487;53.094;8.800;2023-04-09T11:27:45;102721.56;;;18.09;100.00
29549;BME280;16487;53.094;8.800;2023-04-09T11:30:14;102711.94;;;19.11;100.00
29549;BME280;16487;53.094;8.800;2023-04-09T11:32:42;102714.00;;;18.73;100.00
29549;BME280;16487;53.094;8.800;2023-04-09T11:35:10;102694.31;;;18.94;100.00
29549;BME280;16487;53.094;8.800;2023-04-09T11:37:38;102696.50;;;19.71;100.00
29549;BME280;16487;53.094;8.800;2023-04-09T11:40:07;102700.41;;;18.93;100.00
29549;BME280;16487;53.094;8.800;2023-04-09T11:42:34;102695.00;;;18.98;100.00
29549;BME280;16487;53.094;8.800;2023-04-09T11:45:02;102701.88;;;17.65;100.00
29549;BME280;16487;53.094;8.800;2023-04-09T11:47:31;102696.72;;;18.04;100.00
29549;BME280;16487;53.094;8.800;2023-04-09T11:49:59;102689.03;;;18.71;100.00
29549;BME280;16487;53.094;8.800;2023-04-09T11:52:27;102684.13;;;19.56;100.00
29549;BME280;16487;53.094;8.800;2023-04-09T11:54:58;102699.75;;;18.64;100.00
29549;BME280;16487;53.094;8.800;2023-04-09T11:57:41;102685.91;;;19.28;100.00
29549;BME280;16487;53.094;8.800;2023-04-09T12:00:10;102684.88;;;19.35;100.00
29549;BME280;16487;53.094;8.800;2023-04-09T12:02:40;102668.78;;;20.09;100.00
29549;BME280;16487;53.094;8.800;2023-04-09T12:05:10;102669.56;;;20.71;100.00
29549;BME280;16487;53.094;8.800;2023-04-09T12:07:37;102670.66;;;19.82;100.00
29549;BME280;16487;53.094;8.800;2023-04-09T12:10:08;102664.94;;;20.46;100.00
29549;BME280;16487;53.094;8.800;2023-04-09T12:12:39;102689.06;;;18.17;100.00
29549;BME280;16487;53.094;8.800;2023-04-09T12:15:21;102676.22;;;19.51;100.00
29549;BME280;16487;53.094;8.800;2023-04-09T12:17:52;102670.81;;;18.85;100.00
29549;BME280;16487;53.094;8.800;2023-04-09T12:20:32;102670.31;;;19.80;100.00
29549;BME280;16487;53.094;8.800;2023-04-09T12:23:00;102681.78;;;18.70;100.00
29549;BME280;16487;53.094;8.800;2023-04-09T12:25:28;102663.25;;;18.44;100.00
29549;BME280;16487;53.094;8.800;2023-04-09T12:27:56;102658.66;;;19.99;100.00
29549;BME280;16487;53.094;8.800;2023-04-09T12:30:24;102655.50;;;19.54;100.00
29549;BME280;16487;53.094;8.800;2023-04-09T12:32:53;102651.03;;;19.87;100.00
29549;BME280;16487;53.094;8.800;2023-04-09T12:35:21;102644.28;;;20.15;100.00
29549;BME280;16487;53.094;8.800;2023-04-09T12:37:49;102641.41;;;20.06;100.00
29549;BME280;16487;53.094;8.800;2023-04-09T12:40:18;102628.00;;;19.98;100.00
29549;BME280;16487;53.094;8.800;2023-04-09T12:42:46;102631.88;;;19.48;100.00
29549;BME280;16487;53.094;8.800;2023-04-09T12:45:15;102613.63;;;20.44;100.00
29549;BME280;16487;53.094;8.800;2023-04-09T12:47:43;102614.56;;;19.89;100.00
29549;BME280;16487;53.094;8.800;2023-04-09T12:50:13;102608.03;;;20.01;100.00
29549;BME280;16487;53.094;8.800;2023-04-09T12:52:41;102598.41;;;20.20;100.00
29549;BME280;16487;53.094;8.800;2023-04-09T12:55:09;102603.75;;;18.98;100.00
29549;BME280;16487;53.094;8.800;2023-04-09T12:57:37;102606.06;;;18.90;100.00
29549;BME280;16487;53.094;8.800;2023-04-09T13:00:05;102615.69;;;18.80;100.00